JDWX 2.63 27.02870 -80.1653 0.000 0.000 20200704_1900 SFWMD JDWX current weather conditions

sailwx.info

Wind from 103 at 2 knots gusting 4

Air temperature 30.0° C
Dewpoint 22.4° C
Water temperature -7999.0° C

Last reported at 2020-Jul-04 19:30 UTC.
Time now 2020-Jul-04 20:21 UTC

Location: N 27°02' W 080°10'.
View on Google Maps.

See reports from other nearby stations

  
Tides and Currents Weather Stations Pressure Air Temp Water Temp Dewpoint Dewpoint Depression Visibility Wind Speed Wind Dir Waves Ship Positions
date/time (UTC)wind fromknots sea level pressurealtimeterstation pressurevisibilityair tempwater tempwave heightnotes
2020-Jul-04 19:30 103 2 gusting 4 30.0-7999.0
2020-Jul-04 19:15 102 2 gusting 4 31.1-7999.0
2020-Jul-04 19:00 114 2 gusting 6 31.3-7999.0
2020-Jul-04 18:30 099 2 gusting 6 31.0-7999.0
2020-Jul-04 18:15 093 3 gusting 6 30.4-7999.0
2020-Jul-04 18:00 116 2 gusting 7 31.5-7999.0
2020-Jul-04 17:45 081 2 gusting 8 31.1-7999.0
2020-Jul-04 17:30 052 2 gusting 4 31.4-7999.0
2020-Jul-04 17:15 197 1 gusting 3 32.4-7999.0
2020-Jul-04 17:00 262 2 gusting 4 32.1-7999.0
2020-Jul-04 16:45 209 1 gusting 3 32.2-7999.0
2020-Jul-04 16:30 252 1 gusting 3 32.3-7999.0
2020-Jul-04 16:15 224 1 gusting 3 31.9-7999.0
2020-Jul-04 16:00 219 1 gusting 3 31.0-7999.0
2020-Jul-04 15:45 172 1 gusting 2 31.6-7999.0
2020-Jul-04 15:30 276 2 gusting 5 31.0-7999.0
2020-Jul-04 15:15 288 2 gusting 6 30.9-7999.0
2020-Jul-04 15:00 251 1 gusting 4 29.9-7999.0
2020-Jul-04 14:45 245 1 gusting 5 30.4-7999.0
2020-Jul-04 14:30 289 1 gusting 4 30.5-7999.0
2020-Jul-04 14:15 243 1 gusting 3 30.1-7999.0
2020-Jul-04 14:00 252 1 gusting 4 29.0-7999.0
2020-Jul-04 13:45 267 1 gusting 4 27.4-7999.0
2020-Jul-04 13:30 293 2 gusting 4 26.8-7999.0
2020-Jul-04 13:15 281 1 gusting 2 26.4-7999.0
2020-Jul-04 13:00 283 1 gusting 2 27.1-7999.0
2020-Jul-04 12:45 278 1 gusting 3 26.8-7999.0
2020-Jul-04 12:30 273 1 gusting 2 25.6-7999.0
2020-Jul-04 12:15 251 0 gusting 2 24.8-7999.0
2020-Jul-04 11:45 222 0 gusting 0 24.1-7999.0
2020-Jul-04 11:30 220 0 gusting 0 23.9-7999.0
2020-Jul-04 11:15 215 23.7-7999.0
2020-Jul-04 11:00 171 23.5-7999.0
2020-Jul-04 10:45 204 0 gusting 0 23.5-7999.0
2020-Jul-04 10:30 257 0 gusting 1 23.4-7999.0
2020-Jul-04 10:15 180 0 gusting 0 23.6-7999.0
2020-Jul-04 10:00 206 0 gusting 0 23.6-7999.0
2020-Jul-04 09:45 231 0 gusting 0 23.6-7999.0
2020-Jul-04 09:30 223 0 gusting 0 23.8-7999.0
2020-Jul-04 09:15 195 23.9-7999.0
2020-Jul-04 08:45 221 0 gusting 1 24.2-7999.0
2020-Jul-04 08:30 233 0 gusting 1 24.4-7999.0
2020-Jul-04 08:15 280 0 gusting 1 24.4-7999.0
2020-Jul-04 07:45 276 0 gusting 2 24.6-7999.0
2020-Jul-04 07:30 261 0 gusting 1 24.9-7999.0
2020-Jul-04 07:15 261 0 gusting 1 25.0-7999.0
2020-Jul-04 07:00 258 0 gusting 2 25.2-7999.0
2020-Jul-04 06:45 256 0 gusting 2 25.2-7999.0
2020-Jul-04 06:30 266 0 gusting 2 25.2-7999.0
2020-Jul-04 06:15 277 0 gusting 2 25.3-7999.0
2020-Jul-04 05:45 223 0 gusting 1 25.5-7999.0
2020-Jul-04 05:30 230 0 gusting 1 25.6-7999.0
2020-Jul-04 05:15 253 0 gusting 2 25.6-7999.0
2020-Jul-04 04:45 288 25.6-7999.0
2020-Jul-04 04:30 287 25.8-7999.0
2020-Jul-04 04:15 275 25.9-7999.0
2020-Jul-04 03:45 217 0 gusting 1 26.1-7999.0
2020-Jul-04 03:30 251 0 gusting 0 25.9-7999.0
2020-Jul-04 03:15 179 0 gusting 0 26.3-7999.0
2020-Jul-04 02:45 170 0 gusting 0 26.6-7999.0
2020-Jul-04 02:30 170 26.8-7999.0
2020-Jul-04 02:15 183 0 gusting 2 26.8-7999.0
2020-Jul-04 01:45 198 1 gusting 3 26.6-7999.0
2020-Jul-04 01:30 166 0 gusting 2 26.9-7999.0
2020-Jul-04 01:15 158 0 gusting 0 27.0-7999.0
2020-Jul-04 00:30 135 0 gusting 1 27.6-7999.0
2020-Jul-04 00:15 121 0 gusting 1 27.5-7999.0
2020-Jul-03 23:45 124 27.7-7999.0
2020-Jul-03 23:30 122 0 gusting 1 27.9-7999.0
2020-Jul-03 23:15 114 1 gusting 2 26.3-7999.0
2020-Jul-03 22:45 104 0 gusting 2 25.7-7999.0
2020-Jul-03 22:30 064 0 gusting 2 24.2-7999.0
2020-Jul-03 22:15 232 3 gusting 9 26.8-7999.0
2020-Jul-03 21:45 138 1 gusting 5 31.6-7999.0
2020-Jul-03 21:30 106 2 gusting 6 31.5-7999.0
2020-Jul-03 21:15 188 1 gusting 4 32.8-7999.0
2020-Jul-03 21:00 217 1 gusting 3 32.3-7999.0
2020-Jul-03 20:45 238 1 gusting 4 33.3-7999.0
2020-Jul-03 20:30 250 1 gusting 5 33.6-7999.0
2020-Jul-03 20:15 208 2 gusting 6 33.6-7999.0
2020-Jul-03 19:45 238 3 gusting 7 33.7-7999.0
2020-Jul-03 19:30 229 3 gusting 7 33.4-7999.0
2020-Jul-03 19:15 209 2 gusting 7 33.9-7999.0
2020-Jul-03 19:00 228 2 gusting 5 33.7-7999.0
2020-Jul-03 18:45 231 2 gusting 5 33.5-7999.0
2020-Jul-03 18:30 238 2 gusting 5 33.6-7999.0
2020-Jul-03 18:15 223 2 gusting 5 33.3-7999.0
2020-Jul-03 18:00 224 2 gusting 6 33.1-7999.0
2020-Jul-03 17:45 231 2 gusting 4 32.6-7999.0
2020-Jul-03 17:30 264 2 gusting 4 32.2-7999.0
2020-Jul-03 17:15 215 2 gusting 5 32.8-7999.0
2020-Jul-03 16:45 249 2 gusting 4 32.2-7999.0
2020-Jul-03 16:30 197 1 gusting 5 31.6-7999.0
2020-Jul-03 16:15 259 2 gusting 5 31.5-7999.0
2020-Jul-03 16:00 252 2 gusting 4 31.8-7999.0
2020-Jul-03 15:45 238 2 gusting 6 31.1-7999.0
2020-Jul-03 15:30 271 2 gusting 7 30.5-7999.0
2020-Jul-03 15:15 258 2 gusting 5 31.0-7999.0
2020-Jul-03 14:45 265 2 gusting 6 30.1-7999.0
2020-Jul-03 14:30 283 2 gusting 6 29.9-7999.0
2020-Jul-03 14:15 268 2 gusting 7 29.5-7999.0
2020-Jul-03 13:45 257 2 gusting 5 27.5-7999.0
2020-Jul-03 13:30 254 2 gusting 7 27.5-7999.0
2020-Jul-03 13:15 258 2 gusting 4 27.1-7999.0
2020-Jul-03 13:00 253 1 gusting 3 27.4-7999.0
2020-Jul-03 12:45 244 1 gusting 3 27.4-7999.0
2020-Jul-03 12:30 234 1 gusting 3 26.4-7999.0
2020-Jul-03 12:15 237 0 gusting 2 25.3-7999.0
2020-Jul-03 11:45 198 0 gusting 1 24.2-7999.0
2020-Jul-03 11:30 203 0 gusting 1 23.7-7999.0
2020-Jul-03 11:15 226 23.4-7999.0
2020-Jul-03 10:45 226 23.2-7999.0
2020-Jul-03 10:30 226 23.2-7999.0
2020-Jul-03 10:15 226 23.4-7999.0
2020-Jul-03 10:00 226 23.5-7999.0
2020-Jul-03 09:30 200 0 gusting 1 23.7-7999.0
2020-Jul-03 09:15 201 0 gusting 1 23.8-7999.0
2020-Jul-03 08:45 242 24.0-7999.0
2020-Jul-03 08:30 217 0 gusting 0 24.0-7999.0
2020-Jul-03 08:15 199 0 gusting 1 24.0-7999.0
2020-Jul-03 07:45 234 0 gusting 1 24.1-7999.0
2020-Jul-03 07:30 222 0 gusting 1 24.1-7999.0
2020-Jul-03 07:15 217 0 gusting 1 24.2-7999.0
2020-Jul-03 07:00 213 0 gusting 1 24.3-7999.0
2020-Jul-03 06:45 199 0 gusting 1 24.4-7999.0
2020-Jul-03 06:30 177 0 gusting 1 24.5-7999.0
2020-Jul-03 06:15 167 0 gusting 1 24.7-7999.0
2020-Jul-03 06:00 213 0 gusting 1 24.8-7999.0
2020-Jul-03 05:45 188 0 gusting 1 25.1-7999.0
2020-Jul-03 05:30 179 0 gusting 1 25.2-7999.0
2020-Jul-03 05:15 199 0 gusting 1 25.3-7999.0
2020-Jul-03 05:00 193 1 gusting 4 25.5-7999.0
2020-Jul-03 04:45 190 1 gusting 2 25.5-7999.0
2020-Jul-03 04:30 194 1 gusting 2 25.5-7999.0
2020-Jul-03 04:15 183 1 gusting 2 25.4-7999.0
2020-Jul-03 04:00 181 1 gusting 1 25.2-7999.0
2020-Jul-03 03:45 191 1 gusting 2 25.2-7999.0
2020-Jul-03 03:30 170 0 gusting 1 25.3-7999.0
2020-Jul-03 03:15 163 0 gusting 1 25.2-7999.0
2020-Jul-03 03:00 161 0 gusting 1 25.0-7999.0
2020-Jul-03 02:45 272 0 gusting 1 25.1-7999.0
2020-Jul-03 02:30 310 0 gusting 0 25.2-7999.0
2020-Jul-03 02:15 209 0 gusting 0 25.3-7999.0
2020-Jul-03 02:00 195 25.5-7999.0
2020-Jul-03 01:45 195 25.6-7999.0
2020-Jul-03 01:30 194 0 gusting 0 25.8-7999.0
2020-Jul-03 01:15 195 0 gusting 0 25.8-7999.0
2020-Jul-03 00:30 186 0 gusting 1 26.3-7999.0
2020-Jul-03 00:15 184 0 gusting 1 26.3-7999.0
2020-Jul-02 23:45 140 1 gusting 3 26.2-7999.0
2020-Jul-02 23:30 103 1 gusting 4 26.0-7999.0
2020-Jul-02 23:15 106 1 gusting 3 25.6-7999.0
2020-Jul-02 22:45 140 0 gusting 1 25.1-7999.0
2020-Jul-02 22:30 230 2 gusting 8 24.9-7999.0
2020-Jul-02 22:15 237 4 gusting 13 25.5-7999.0
2020-Jul-02 22:00 266 4 gusting 9 29.6-7999.0
2020-Jul-02 21:45 243 1 gusting 5 32.3-7999.0
2020-Jul-02 21:30 212 2 gusting 5 33.0-7999.0
2020-Jul-02 21:15 222 2 gusting 4 33.9-7999.0
2020-Jul-02 20:45 223 1 gusting 4 33.5-7999.0
2020-Jul-02 20:30 205 2 gusting 6 33.1-7999.0
2020-Jul-02 20:20 229 2 gusting 6 33.7-7999.0